createdAt,value
2019-01-30T00:00:53.062Z,22.70
2019-01-30T00:05:58.084Z,20.30
2019-01-30T00:11:03.117Z,21.10
2019-01-30T00:16:08.141Z,22.30
2019-01-30T00:21:13.154Z,23.47
2019-01-30T00:26:18.177Z,22.83
2019-01-30T00:31:23.197Z,23.17
2019-01-30T00:36:28.224Z,26.23
2019-01-30T00:41:33.265Z,26.73
2019-01-30T00:46:38.286Z,24.10
2019-01-30T00:51:43.347Z,23.90
2019-01-30T00:56:48.365Z,25.00
2019-01-30T01:01:53.405Z,23.97
2019-01-30T01:06:58.442Z,20.93
2019-01-30T01:12:03.516Z,20.43
2019-01-30T01:17:08.543Z,21.97
2019-01-30T01:22:13.631Z,21.33
2019-01-30T01:27:18.818Z,20.47
2019-01-30T01:32:23.760Z,21.23
2019-01-30T01:37:28.778Z,19.97
2019-01-30T01:42:33.811Z,21.77
2019-01-30T01:47:38.853Z,21.00
2019-01-30T01:52:43.921Z,19.80
2019-01-30T01:57:49.346Z,22.63
2019-01-30T02:02:54.376Z,22.63
2019-01-30T02:07:59.385Z,22.83
2019-01-30T02:13:05.165Z,25.27
2019-01-30T02:18:10.139Z,26.03
2019-01-30T02:23:15.216Z,26.40
2019-01-30T02:28:20.230Z,29.53
2019-01-30T02:33:25.237Z,30.63
2019-01-30T02:38:30.245Z,31.13
2019-01-30T02:43:35.290Z,30.33
2019-01-30T02:48:40.307Z,33.97
2019-01-30T02:53:45.370Z,32.37
2019-01-30T02:58:50.387Z,32.70
2019-01-30T03:03:55.408Z,32.80
2019-01-30T03:09:00.434Z,33.93
2019-01-30T03:14:05.447Z,34.20
2019-01-30T03:19:10.475Z,32.73
2019-01-30T03:24:15.488Z,31.40
2019-01-30T03:29:21.982Z,31.97
2019-01-30T03:34:26.999Z,29.57
2019-01-30T03:39:32.045Z,28.33
2019-01-30T03:44:37.073Z,27.23
2019-01-30T03:49:42.119Z,26.23
2019-01-30T03:54:47.208Z,26.47
2019-01-30T03:59:52.226Z,25.97
2019-01-30T04:04:57.235Z,25.50
2019-01-30T04:10:02.271Z,24.67
2019-01-30T04:15:08.075Z,27.43
2019-01-30T04:20:14.104Z,26.43
2019-01-30T04:25:19.240Z,26.40
2019-01-30T04:30:25.596Z,27.53
2019-01-30T04:35:30.622Z,29.07
2019-01-30T04:40:35.633Z,28.53
2019-01-30T04:45:41.045Z,26.93
2019-01-30T04:50:46.080Z,27.70
2019-01-30T04:55:51.547Z,27.30
2019-01-30T05:00:56.572Z,26.33
2019-01-30T05:06:01.808Z,27.00
2019-01-30T05:11:06.845Z,27.17
2019-01-30T05:16:11.875Z,26.73
2019-01-30T05:21:16.900Z,28.60
2019-01-30T05:26:21.923Z,27.20
2019-01-30T05:31:26.988Z,27.20
2019-01-30T05:36:31.997Z,26.93
2019-01-30T05:41:37.524Z,26.47
2019-01-30T05:46:42.542Z,25.90
2019-01-30T05:51:47.616Z,25.70
2019-01-30T05:56:52.628Z,25.70
2019-01-30T06:01:57.647Z,24.70
2019-01-30T06:07:02.659Z,21.87
2019-01-30T06:12:07.694Z,24.03
2019-01-30T06:17:12.711Z,25.03
2019-01-30T06:22:17.744Z,24.97
2019-01-30T06:27:22.760Z,25.67
2019-01-30T06:32:27.784Z,29.50
2019-01-30T06:37:32.797Z,31.10
2019-01-30T06:42:37.816Z,32.07
2019-01-30T06:47:43.243Z,31.53
2019-01-30T06:52:48.303Z,32.30
2019-01-30T06:57:55.056Z,27.67
2019-01-30T07:03:00.489Z,25.83
2019-01-30T07:08:05.585Z,23.83
2019-01-30T07:13:10.672Z,23.07
2019-01-30T07:18:16.159Z,22.20
2019-01-30T07:23:21.190Z,21.53
2019-01-30T07:28:26.231Z,20.80
2019-01-30T07:33:31.276Z,25.27
2019-01-30T07:38:36.293Z,25.77
2019-01-30T07:43:41.315Z,28.17
2019-01-30T07:48:46.336Z,26.83
2019-01-30T07:53:51.462Z,27.27
2019-01-30T07:58:56.492Z,28.53
2019-01-30T08:04:01.573Z,30.13
2019-01-30T08:09:09.896Z,25.73
2019-01-30T08:14:15.198Z,28.10
2019-01-30T08:19:20.214Z,27.73
2019-01-30T08:24:25.280Z,24.77
2019-01-30T08:29:30.715Z,27.67
2019-01-30T08:34:35.880Z,30.50
2019-01-30T08:39:40.917Z,27.97
2019-01-30T08:44:46.999Z,27.97
2019-01-30T08:49:52.574Z,29.27
2019-01-30T08:54:58.115Z,29.87
2019-01-30T09:00:04.758Z,28.90
2019-01-30T09:05:10.476Z,29.13
2019-01-30T09:10:34.710Z,27.40
2019-01-30T09:15:40.927Z,26.57
2019-01-30T09:20:46.027Z,25.27
2019-01-30T09:25:51.146Z,21.87
2019-01-30T09:30:56.256Z,21.73
2019-01-30T09:36:01.367Z,19.03
2019-01-30T09:41:06.785Z,19.23
2019-01-30T09:46:11.888Z,19.23
2019-01-30T09:51:16.999Z,17.70
2019-01-30T09:56:22.091Z,25.57
2019-01-30T10:01:30.195Z,26.20
2019-01-30T10:06:35.220Z,26.77
2019-01-30T10:11:40.269Z,29.20
2019-01-30T10:16:47.126Z,25.50
2019-01-30T10:21:52.194Z,26.97
2019-01-30T10:26:57.250Z,26.87
2019-01-30T10:32:02.291Z,30.93
2019-01-30T10:37:07.372Z,26.73
2019-01-30T10:42:12.415Z,27.40
2019-01-30T10:47:20.039Z,29.37
2019-01-30T10:52:25.080Z,32.63
2019-01-30T10:57:30.213Z,37.57
2019-01-30T11:02:36.295Z,45.57
2019-01-30T11:07:41.293Z,48.17
2019-01-30T11:12:46.580Z,47.70
2019-01-30T11:17:51.587Z,49.03
2019-01-30T11:22:56.592Z,53.13
2019-01-30T11:28:01.627Z,51.17
2019-01-30T11:33:06.659Z,55.00
2019-01-30T11:38:11.686Z,51.17
2019-01-30T11:43:16.689Z,52.93
2019-01-30T11:48:21.695Z,54.90
2019-01-30T11:53:26.714Z,50.90
2019-01-30T11:58:31.691Z,50.80
2019-01-30T12:03:36.658Z,56.53
2019-01-30T12:08:41.838Z,50.87
2019-01-30T12:13:46.790Z,51.40
2019-01-30T12:18:51.795Z,45.80
2019-01-30T12:23:56.767Z,44.37
2019-01-30T12:29:01.765Z,47.80
2019-01-30T12:34:06.732Z,52.07
2019-01-30T12:39:11.819Z,51.93
2019-01-30T12:44:16.810Z,54.67
2019-01-30T12:49:21.870Z,46.40
2019-01-30T12:54:26.779Z,46.97
2019-01-30T12:59:31.758Z,46.63
2019-01-30T13:04:38.818Z,45.97
2019-01-30T13:09:43.351Z,46.67
2019-01-30T13:14:48.375Z,45.43
2019-01-30T13:19:53.347Z,46.00
2019-01-30T13:24:58.343Z,49.50
2019-01-30T13:30:03.331Z,51.50
2019-01-30T13:35:08.754Z,49.43
2019-01-30T13:40:17.770Z,48.77
2019-01-30T13:45:23.282Z,51.73
2019-01-30T13:50:28.710Z,54.70
2019-01-30T13:55:33.691Z,54.33
2019-01-30T14:00:38.830Z,54.73
2019-01-30T14:05:43.892Z,55.20
2019-01-30T14:10:48.859Z,45.83
2019-01-30T14:15:53.870Z,42.93
2019-01-30T14:20:58.862Z,45.00
2019-01-30T14:26:04.052Z,41.00
2019-01-30T14:31:09.240Z,40.87
2019-01-30T14:36:14.195Z,42.03
2019-01-30T14:41:19.149Z,42.37
2019-01-30T14:46:24.124Z,42.50
2019-01-30T14:51:29.127Z,41.50
2019-01-30T14:56:34.146Z,41.93
2019-01-30T15:01:39.145Z,42.70
2019-01-30T15:06:44.175Z,45.70
2019-01-30T15:11:49.322Z,45.57
2019-01-30T15:16:54.645Z,43.13
2019-01-30T15:21:59.642Z,42.13
2019-01-30T15:27:04.606Z,42.40
2019-01-30T15:32:09.604Z,41.03
2019-01-30T15:37:14.577Z,43.13
2019-01-30T15:42:19.560Z,42.47
2019-01-30T15:47:24.539Z,43.03
2019-01-30T15:52:29.514Z,48.23
2019-01-30T15:57:34.540Z,43.53
2019-01-30T16:02:39.520Z,42.03
2019-01-30T16:07:44.481Z,42.63
2019-01-30T16:12:49.469Z,38.73
2019-01-30T16:17:54.468Z,36.40
2019-01-30T16:22:59.434Z,34.63
2019-01-30T16:28:04.759Z,35.80
2019-01-30T16:33:09.723Z,33.43
2019-01-30T16:38:14.690Z,32.57
2019-01-30T16:43:19.656Z,30.63
2019-01-30T16:48:24.823Z,26.47
2019-01-30T16:53:29.748Z,24.90
2019-01-30T16:58:34.774Z,24.27
2019-01-30T17:03:39.762Z,21.43
2019-01-30T17:08:44.985Z,19.47
2019-01-30T17:13:50.036Z,20.17
2019-01-30T17:18:55.008Z,19.80
2019-01-30T17:24:00.030Z,19.90
2019-01-30T17:29:05.135Z,21.70
2019-01-30T17:34:10.134Z,21.30
2019-01-30T17:39:15.176Z,21.70
2019-01-30T17:44:20.150Z,25.40
2019-01-30T17:49:25.121Z,24.20
2019-01-30T17:54:30.267Z,24.50
2019-01-30T17:59:35.305Z,26.87
2019-01-30T18:04:40.288Z,29.10
2019-01-30T18:09:45.350Z,29.63
2019-01-30T18:14:50.334Z,32.57
2019-01-30T18:19:55.311Z,38.80
2019-01-30T18:25:00.303Z,36.37
2019-01-30T18:30:07.143Z,38.43
2019-01-30T18:35:12.627Z,39.83
2019-01-30T18:40:19.562Z,39.07
2019-01-30T18:45:25.784Z,38.10
2019-01-30T18:50:30.875Z,34.33
2019-01-30T18:55:36.170Z,32.43
2019-01-30T19:00:43.357Z,34.23
2019-01-30T19:05:49.123Z,36.00
2019-01-30T19:10:54.095Z,36.87
2019-01-30T19:15:59.153Z,35.50
2019-01-30T19:21:04.123Z,36.30
2019-01-30T19:26:08.379Z,37.30
2019-01-30T19:31:13.379Z,34.50
2019-01-30T19:36:18.351Z,36.83
2019-01-30T19:41:23.339Z,37.13
2019-01-30T19:46:28.359Z,38.80
2019-01-30T19:51:33.340Z,37.17
2019-01-30T19:56:38.365Z,37.97
2019-01-30T20:01:43.354Z,35.33
2019-01-30T20:06:48.335Z,35.37
2019-01-30T20:11:53.318Z,36.63
2019-01-30T20:16:58.294Z,36.83
2019-01-30T20:22:03.258Z,36.87
2019-01-30T20:27:08.247Z,38.93
2019-01-30T20:32:13.234Z,38.93
2019-01-30T20:37:25.836Z,40.13
2019-01-30T20:42:24.862Z,43.70
2019-01-30T20:47:29.866Z,43.57
2019-01-30T20:52:34.882Z,43.50
2019-01-30T20:57:40.000Z,42.10
2019-01-30T21:02:44.972Z,44.73
2019-01-30T21:07:49.998Z,48.70
2019-01-30T21:12:55.030Z,48.97
2019-01-30T21:18:00.015Z,74.07
2019-01-30T21:23:05.324Z,49.07
2019-01-30T21:28:10.328Z,52.30
2019-01-30T21:33:15.303Z,54.30
2019-01-30T21:38:20.354Z,53.20
2019-01-30T21:43:25.340Z,57.67
2019-01-30T21:48:30.322Z,54.80
2019-01-30T21:53:35.322Z,60.33
2019-01-30T21:58:40.318Z,56.07
2019-01-30T22:03:45.302Z,58.67
2019-01-30T22:08:50.291Z,56.70
2019-01-30T22:13:57.200Z,57.27
2019-01-30T22:19:01.846Z,56.07
2019-01-30T22:24:07.147Z,57.53
2019-01-30T22:29:12.140Z,54.13
2019-01-30T22:34:17.104Z,53.90
2019-01-30T22:39:22.133Z,55.30
2019-01-30T22:44:27.135Z,59.40
2019-01-30T22:49:32.111Z,60.77
2019-01-30T22:54:37.110Z,61.50
2019-01-30T22:59:42.330Z,60.10
2019-01-30T23:05:09.376Z,60.17
2019-01-30T23:10:49.803Z,55.73
2019-01-30T23:16:32.031Z,57.67
2019-01-30T23:21:45.350Z,58.80
2019-01-30T23:27:18.851Z,56.50
2019-01-30T23:32:48.550Z,59.47
2019-01-30T23:38:59.590Z,52.07
2019-01-30T23:44:24.626Z,47.77
2019-01-30T23:50:32.145Z,49.83
2019-01-30T23:56:08.703Z,48.50
